createdAt,value
2023-02-21T00:00:44.070Z,100045.81
2023-02-21T00:03:35.054Z,100039.69
2023-02-21T00:06:20.370Z,100038.84
2023-02-21T00:09:12.085Z,100031.09
2023-02-21T00:12:01.503Z,100036.97
2023-02-21T00:14:53.079Z,100041.41
2023-02-21T00:17:37.736Z,100043.78
2023-02-21T00:20:29.054Z,100044.38
2023-02-21T00:23:20.055Z,100039.50
2023-02-21T00:26:05.413Z,100041.13
2023-02-21T00:28:58.062Z,100039.44
2023-02-21T00:31:42.664Z,100033.44
2023-02-21T00:34:34.051Z,100035.75
2023-02-21T00:37:25.030Z,100044.53
2023-02-21T00:40:16.051Z,100034.97
2023-02-21T00:43:07.038Z,100040.25
2023-02-21T00:45:58.073Z,100023.91
2023-02-21T00:48:43.366Z,100032.56
2023-02-21T00:51:35.030Z,100022.03
2023-02-21T00:54:26.034Z,100036.25
2023-02-21T00:57:18.029Z,100029.19
2023-02-21T01:00:02.655Z,100024.34
2023-02-21T01:02:54.035Z,100023.63
2023-02-21T01:05:38.828Z,100015.81
2023-02-21T01:08:30.018Z,100009.41
2023-02-21T01:11:21.006Z,100008.66
2023-02-21T01:14:12.022Z,100011.88
2023-02-21T01:16:59.416Z,100012.16
2023-02-21T01:20:00.044Z,100010.19
2023-02-21T01:22:53.034Z,100016.50
2023-02-21T01:25:38.418Z,100019.97
2023-02-21T01:28:30.015Z,100021.00
2023-02-21T01:31:29.050Z,100015.84
2023-02-21T01:34:14.080Z,100018.53
2023-02-21T01:37:07.024Z,100019.31
2023-02-21T01:39:54.302Z,100016.00
2023-02-21T01:42:47.536Z,100016.94
2023-02-21T01:45:49.276Z,100016.88
2023-02-21T01:48:47.002Z,100022.06
2023-02-21T01:51:36.983Z,100021.13
2023-02-21T01:54:30.007Z,100010.69
2023-02-21T01:57:24.999Z,100019.22
2023-02-21T02:00:18.002Z,100001.16
2023-02-21T02:03:14.992Z,100008.34
2023-02-21T02:06:02.929Z,100003.06
2023-02-21T02:08:56.989Z,100002.84
2023-02-21T02:11:50.895Z,100000.16
2023-02-21T02:15:05.984Z,100003.81
2023-02-21T02:18:09.492Z,100003.78
2023-02-21T02:21:30.976Z,99994.34
2023-02-21T02:24:26.180Z,99998.78
2023-02-21T02:27:26.990Z,99998.59
2023-02-21T02:30:26.451Z,100003.16
2023-02-21T02:33:40.989Z,100004.06
2023-02-21T02:36:21.974Z,99998.03
2023-02-21T02:39:18.270Z,100000.63
2023-02-21T02:42:00.966Z,99998.59
2023-02-21T02:44:59.969Z,99996.91
2023-02-21T02:47:37.425Z,99998.00
2023-02-21T02:50:13.985Z,99997.88
2023-02-21T02:52:56.966Z,99995.19
2023-02-21T02:55:41.675Z,99983.91
2023-02-21T02:58:17.961Z,99979.50
2023-02-21T03:00:59.952Z,99977.09
2023-02-21T03:03:58.024Z,99977.91
2023-02-21T03:06:56.956Z,99972.53
2023-02-21T03:09:37.957Z,99971.97
2023-02-21T03:12:55.955Z,99977.22
2023-02-21T03:15:34.942Z,99975.38
2023-02-21T03:18:09.546Z,99966.66
2023-02-21T03:20:44.937Z,99959.94
2023-02-21T03:23:21.951Z,99958.56
2023-02-21T03:25:57.951Z,99968.53
2023-02-21T03:28:25.827Z,99969.63
2023-02-21T03:31:04.057Z,99990.56
2023-02-21T03:33:36.943Z,99983.44
2023-02-21T03:36:05.776Z,99987.09
2023-02-21T03:38:38.947Z,99981.94
2023-02-21T03:41:13.268Z,99985.03
2023-02-21T03:43:45.943Z,99982.56
2023-02-21T03:46:19.192Z,99983.69
2023-02-21T03:48:51.947Z,99980.09
2023-02-21T03:51:24.930Z,99990.16
2023-02-21T03:53:51.402Z,99979.19
2023-02-21T03:56:33.376Z,99987.09
2023-02-21T03:59:07.143Z,99986.09
2023-02-21T04:01:40.014Z,99994.00
2023-02-21T04:04:06.486Z,99985.19
2023-02-21T04:06:38.916Z,99989.72
2023-02-21T04:09:11.930Z,99994.22
2023-02-21T04:11:44.929Z,99994.16
2023-02-21T04:14:12.185Z,100001.31
2023-02-21T04:16:44.930Z,100008.97
2023-02-21T04:19:17.923Z,99993.28
2023-02-21T04:21:50.952Z,99993.13
2023-02-21T04:24:23.912Z,99991.50
2023-02-21T04:26:50.363Z,99997.88
2023-02-21T04:29:25.017Z,99995.63
2023-02-21T04:31:58.028Z,100001.13
2023-02-21T04:34:30.935Z,99991.69
2023-02-21T04:36:57.345Z,100003.19
2023-02-21T04:39:29.900Z,100004.81
2023-02-21T04:41:56.369Z,100002.50
2023-02-21T04:44:29.145Z,100007.50
2023-02-21T04:46:55.600Z,100000.28
2023-02-21T04:49:31.919Z,100002.50
2023-02-21T04:51:58.365Z,100003.84
2023-02-21T04:54:30.912Z,100003.78
2023-02-21T04:57:03.980Z,99999.28
2023-02-21T04:59:31.593Z,99998.44
2023-02-21T05:02:05.916Z,99988.72
2023-02-21T05:04:32.647Z,99988.91
2023-02-21T05:07:05.916Z,99989.81
2023-02-21T05:09:32.754Z,99984.47
2023-02-21T05:12:05.889Z,99987.78
2023-02-21T05:14:32.295Z,99984.25
2023-02-21T05:16:58.704Z,99975.25
2023-02-21T05:19:34.911Z,99977.88
2023-02-21T05:22:09.884Z,99978.78
2023-02-21T05:24:48.883Z,99973.66
2023-02-21T05:27:28.896Z,99973.25
2023-02-21T05:30:01.890Z,99969.09
2023-02-21T05:32:29.965Z,99976.59
2023-02-21T05:35:03.973Z,99968.84
2023-02-21T05:37:36.870Z,99968.84
2023-02-21T05:40:11.895Z,99963.31
2023-02-21T05:42:38.314Z,99967.16
2023-02-21T05:45:12.864Z,99975.88
2023-02-21T05:47:39.286Z,99968.63
2023-02-21T05:50:12.876Z,99967.81
2023-02-21T05:52:39.288Z,99967.50
2023-02-21T05:55:12.870Z,99963.31
2023-02-21T05:57:39.765Z,99961.88
2023-02-21T06:00:13.894Z,99968.50
2023-02-21T06:02:40.340Z,99960.38
2023-02-21T06:05:07.299Z,99962.47
2023-02-21T06:07:39.869Z,99970.47
2023-02-21T06:10:06.466Z,99966.09
2023-02-21T06:12:39.878Z,99966.97
2023-02-21T06:15:13.895Z,99954.78
2023-02-21T06:17:41.055Z,99950.13
2023-02-21T06:20:09.126Z,99955.66
2023-02-21T06:22:41.852Z,99953.63
2023-02-21T06:25:08.970Z,99961.44
2023-02-21T06:27:41.848Z,99962.25
2023-02-21T06:30:09.054Z,99965.63
2023-02-21T06:32:41.852Z,99960.84
2023-02-21T06:35:14.840Z,99963.69
2023-02-21T06:37:47.865Z,99974.41
2023-02-21T06:40:20.871Z,99962.75
2023-02-21T06:42:53.838Z,99975.16
2023-02-21T06:45:20.277Z,99972.78
2023-02-21T06:47:46.735Z,99964.69
2023-02-21T06:50:19.835Z,99967.50
2023-02-21T06:52:46.246Z,99968.97
2023-02-21T06:55:12.660Z,99960.69
2023-02-21T06:57:45.867Z,99969.47
2023-02-21T07:00:12.721Z,99966.25
2023-02-21T07:02:52.829Z,99970.66
2023-02-21T07:05:25.859Z,99964.19
2023-02-21T07:07:52.270Z,99957.19
2023-02-21T07:10:24.860Z,99957.28
2023-02-21T07:12:57.844Z,99951.56
2023-02-21T07:15:24.248Z,99950.66
2023-02-21T07:17:56.845Z,99942.19
2023-02-21T07:20:29.834Z,99948.50
2023-02-21T07:22:56.273Z,99949.44
2023-02-21T07:25:30.277Z,99958.25
2023-02-21T07:28:02.817Z,99954.81
2023-02-21T07:30:35.915Z,99954.44
2023-02-21T07:33:02.421Z,99958.81
2023-02-21T07:35:35.817Z,99954.22
2023-02-21T07:38:02.251Z,99962.81
2023-02-21T07:40:34.831Z,99956.00
2023-02-21T07:43:02.287Z,99958.91
2023-02-21T07:45:35.810Z,99956.97
2023-02-21T07:48:08.816Z,99955.00
2023-02-21T07:50:35.236Z,99972.97
2023-02-21T07:53:09.658Z,99970.75
2023-02-21T07:55:37.378Z,99973.28
2023-02-21T07:58:10.815Z,99966.38
2023-02-21T08:00:43.812Z,99962.91
2023-02-21T08:03:18.854Z,99967.53
2023-02-21T08:15:40.548Z,99974.78
2023-02-21T08:18:13.464Z,99968.28
2023-02-21T08:20:39.910Z,99970.09
2023-02-21T08:23:06.331Z,99978.28
2023-02-21T08:25:39.425Z,99978.13
2023-02-21T08:28:05.948Z,99970.22
2023-02-21T08:30:38.689Z,99964.66
2023-02-21T08:33:12.435Z,99965.72
2023-02-21T08:35:38.961Z,99971.72
2023-02-21T08:38:12.446Z,99969.44
2023-02-21T08:40:39.080Z,99965.34
2023-02-21T08:43:08.636Z,99964.19
2023-02-21T08:45:41.380Z,99961.09
2023-02-21T08:48:15.436Z,99970.47
2023-02-21T08:50:48.447Z,99962.53
2023-02-21T08:53:15.558Z,99967.56
2023-02-21T08:55:49.732Z,99973.22
2023-02-21T08:58:17.423Z,99968.97
2023-02-21T09:00:46.062Z,99967.56
2023-02-21T09:03:20.664Z,99962.75
2023-02-21T09:05:47.249Z,99969.03
2023-02-21T09:08:20.434Z,99964.03
2023-02-21T09:10:54.417Z,99960.66
2023-02-21T09:13:21.018Z,99961.09
2023-02-21T09:15:54.511Z,99969.22
2023-02-21T09:18:28.374Z,99965.22
2023-02-21T09:20:57.391Z,99962.56
2023-02-21T09:23:35.359Z,99962.34
2023-02-21T09:26:01.851Z,99971.88
2023-02-21T09:28:38.416Z,99965.28
2023-02-21T09:31:13.975Z,99974.88
2023-02-21T09:33:51.692Z,99966.59
2023-02-21T09:36:23.564Z,99958.22
2023-02-21T09:38:59.978Z,99968.09
2023-02-21T09:41:37.654Z,99964.84
2023-02-21T09:44:06.878Z,99972.53
2023-02-21T09:46:56.679Z,99973.16
2023-02-21T09:49:26.011Z,99977.22
2023-02-21T09:51:53.606Z,99965.63
2023-02-21T09:54:39.615Z,99980.00
2023-02-21T09:57:13.833Z,99981.28
2023-02-21T09:59:47.408Z,99978.59
2023-02-21T10:02:44.433Z,99983.53
2023-02-21T10:05:32.072Z,99970.84
2023-02-21T10:08:23.631Z,99977.63
2023-02-21T10:11:02.399Z,99973.22
2023-02-21T10:13:55.383Z,99980.13
2023-02-21T10:16:38.396Z,99982.25
2023-02-21T10:19:31.942Z,99977.91
2023-02-21T10:22:10.381Z,99976.78
2023-02-21T10:24:36.935Z,99982.03
2023-02-21T10:27:07.376Z,99985.34
2023-02-21T10:29:57.361Z,99980.16
2023-02-21T10:32:31.339Z,99981.66
2023-02-21T10:35:01.236Z,99976.38
2023-02-21T10:37:48.396Z,99981.03
2023-02-21T10:40:28.939Z,99976.38
2023-02-21T10:43:15.323Z,99981.22
2023-02-21T10:45:57.952Z,99978.38
2023-02-21T10:48:41.366Z,99981.19
2023-02-21T10:51:12.259Z,99988.56
2023-02-21T10:53:48.362Z,99982.41
2023-02-21T10:56:15.083Z,99978.94
2023-02-21T10:59:12.363Z,99977.34
2023-02-21T11:01:52.582Z,99970.31
2023-02-21T11:04:29.379Z,99974.31
2023-02-21T11:06:59.582Z,99968.41
2023-02-21T11:09:46.368Z,99972.75
2023-02-21T11:12:15.529Z,99962.69
2023-02-21T11:14:43.812Z,99959.91
2023-02-21T11:17:39.321Z,99959.94
2023-02-21T11:20:21.693Z,99959.59
2023-02-21T11:22:49.918Z,99965.63
2023-02-21T11:25:20.534Z,99958.22
2023-02-21T11:28:17.353Z,99949.41
2023-02-21T11:31:02.961Z,99949.34
2023-02-21T11:33:37.343Z,99944.81
2023-02-21T11:36:18.372Z,99943.00
2023-02-21T11:39:00.237Z,99935.81
2023-02-21T11:41:42.347Z,99931.06
2023-02-21T11:44:38.881Z,99920.38
2023-02-21T11:47:58.360Z,99917.19
2023-02-21T11:50:39.631Z,99912.69
2023-02-21T11:53:44.339Z,99911.28
2023-02-21T11:56:44.510Z,99910.13
2023-02-21T11:59:36.421Z,99912.63
2023-02-21T12:02:19.836Z,99900.03
2023-02-21T12:05:13.338Z,99900.38
2023-02-21T12:08:00.998Z,99901.63
2023-02-21T12:11:07.548Z,99896.59
2023-02-21T12:14:20.930Z,99885.97
2023-02-21T12:17:09.327Z,99888.09
2023-02-21T12:20:06.524Z,99883.25
2023-02-21T12:23:06.294Z,99886.00
2023-02-21T12:25:47.780Z,99877.50
2023-02-21T12:28:46.334Z,99881.34
2023-02-21T12:31:57.454Z,99877.56
2023-02-21T12:34:57.302Z,99869.94
2023-02-21T12:37:40.584Z,99858.47
2023-02-21T12:40:27.566Z,99864.25
2023-02-21T12:43:41.143Z,99861.03
2023-02-21T12:46:36.322Z,99847.91
2023-02-21T12:49:22.408Z,99847.81
2023-02-21T12:52:04.289Z,99839.03
2023-02-21T12:54:53.375Z,99837.41
2023-02-21T12:57:27.813Z,99828.25
2023-02-21T13:00:29.338Z,99830.44
2023-02-21T13:03:34.397Z,99815.63
2023-02-21T13:06:22.300Z,99810.44
2023-02-21T13:09:06.721Z,99807.22
2023-02-21T13:11:48.283Z,99803.00
2023-02-21T13:14:23.309Z,99804.78
2023-02-21T13:16:59.265Z,99802.38
2023-02-21T13:19:38.294Z,99775.72
2023-02-21T13:22:55.348Z,99777.69
2023-02-21T13:25:47.299Z,99775.16
2023-02-21T13:28:31.318Z,99768.09
2023-02-21T13:31:07.430Z,99776.81
2023-02-21T13:33:45.598Z,99771.66
2023-02-21T13:36:30.298Z,99759.22
2023-02-21T13:39:08.567Z,99751.84
2023-02-21T13:41:50.314Z,99751.94
2023-02-21T13:44:30.278Z,99743.50
2023-02-21T13:47:01.016Z,99738.75
2023-02-21T13:49:45.546Z,99740.53
2023-02-21T13:52:24.207Z,99735.53
2023-02-21T13:55:21.343Z,99734.16
2023-02-21T13:57:50.026Z,99725.41
2023-02-21T14:00:32.563Z,99733.78
2023-02-21T14:03:16.497Z,99718.75
2023-02-21T14:05:54.779Z,99717.47
2023-02-21T14:08:57.310Z,99712.81
2023-02-21T14:11:32.730Z,99709.78
2023-02-21T14:14:11.266Z,99706.09
2023-02-21T14:17:00.008Z,99704.94
2023-02-21T14:19:42.573Z,99703.19
2023-02-21T14:22:24.664Z,99703.97
2023-02-21T14:25:00.577Z,99689.84
2023-02-21T15:48:40.952Z,99643.97
2023-02-21T15:51:15.110Z,99646.56
2023-02-21T15:53:48.007Z,99644.88
2023-02-21T15:56:17.381Z,99641.03
2023-02-21T15:59:13.958Z,99639.59
2023-02-21T16:01:48.008Z,99638.25
2023-02-21T16:04:29.948Z,99626.84
2023-02-21T16:07:03.970Z,99633.16
2023-02-21T16:09:40.963Z,99634.38
2023-02-21T16:12:10.286Z,99629.22
2023-02-21T16:15:01.960Z,99630.28
2023-02-21T16:17:47.942Z,99625.13
2023-02-21T16:20:16.841Z,99623.63
2023-02-21T16:23:11.164Z,99618.47
2023-02-21T16:26:02.990Z,99625.97
2023-02-21T16:28:32.801Z,99625.41
2023-02-21T16:31:08.968Z,99626.63
2023-02-21T16:33:35.980Z,99623.91
2023-02-21T16:36:17.054Z,99629.88
2023-02-21T16:38:50.962Z,99631.19
2023-02-21T16:41:17.947Z,99630.56
2023-02-21T16:43:51.932Z,99635.31
2023-02-21T16:46:29.627Z,99636.69
2023-02-21T16:49:03.938Z,99627.44
2023-02-21T16:51:41.135Z,99633.47
2023-02-21T16:54:15.933Z,99631.56
2023-02-21T16:56:50.357Z,99632.44
2023-02-21T16:59:30.964Z,99631.16
2023-02-21T17:01:57.412Z,99640.56
2023-02-21T17:04:34.081Z,99638.44
2023-02-21T17:07:10.960Z,99631.25
2023-02-21T17:09:47.994Z,99631.94
2023-02-21T17:12:14.556Z,99634.31
2023-02-21T17:14:48.014Z,99641.03
2023-02-21T17:17:15.274Z,99639.03
2023-02-21T17:19:48.943Z,99644.84
2023-02-21T17:22:22.151Z,99647.91
2023-02-21T17:24:55.935Z,99651.50
2023-02-21T17:27:29.062Z,99653.03
2023-02-21T17:30:16.286Z,99653.91
2023-02-21T17:32:47.319Z,99657.22
2023-02-21T17:35:22.928Z,99657.00
2023-02-21T17:37:52.187Z,99653.34
2023-02-21T17:40:29.056Z,99661.47
2023-02-21T17:43:03.891Z,99661.66
2023-02-21T17:45:39.927Z,99649.84
2023-02-21T17:48:06.425Z,99658.25
2023-02-21T17:50:39.924Z,99655.81
2023-02-21T17:53:06.578Z,99656.81
2023-02-21T17:55:33.249Z,99656.66
2023-02-21T17:58:08.302Z,99662.16
2023-02-21T18:00:35.410Z,99666.91
2023-02-21T18:03:10.916Z,99662.81
2023-02-21T18:05:45.010Z,99665.69
2023-02-21T18:08:17.902Z,99672.22
2023-02-21T18:10:46.775Z,99669.88
2023-02-21T18:13:26.902Z,99667.59
2023-02-21T18:15:59.897Z,99675.06
2023-02-21T18:18:35.954Z,99676.16
2023-02-21T18:21:02.480Z,99677.31
2023-02-21T18:23:30.154Z,99672.38
2023-02-21T18:26:03.881Z,99676.56
2023-02-21T18:28:31.586Z,99673.44
2023-02-21T18:31:05.897Z,99671.13
2023-02-21T18:33:34.307Z,99680.91
2023-02-21T18:36:06.904Z,99674.50
2023-02-21T18:38:33.319Z,99683.72
2023-02-21T18:41:02.240Z,99675.13
2023-02-21T18:43:36.908Z,99673.78
2023-02-21T18:46:16.966Z,99679.38
2023-02-21T18:48:51.892Z,99674.41
2023-02-21T18:51:19.978Z,99685.09
2023-02-21T18:53:54.891Z,99678.53
2023-02-21T18:56:28.884Z,99672.84
2023-02-21T18:58:56.045Z,99676.72
2023-02-21T19:01:26.289Z,99678.00
2023-02-21T19:04:01.935Z,99678.06
2023-02-21T19:06:37.864Z,99673.75
2023-02-21T19:09:11.892Z,99667.59
2023-02-21T19:11:38.628Z,99668.47
2023-02-21T19:14:11.872Z,99665.06
2023-02-21T19:16:44.873Z,99669.63
2023-02-21T19:19:11.274Z,99662.06
2023-02-21T19:21:45.106Z,99662.97
2023-02-21T19:24:11.513Z,99666.66
2023-02-21T19:26:44.911Z,99659.75
2023-02-21T19:29:14.554Z,99656.53
2023-02-21T19:31:47.975Z,99662.81
2023-02-21T19:34:18.561Z,99660.38
2023-02-21T19:36:45.027Z,99669.28
2023-02-21T19:39:18.867Z,99660.75
2023-02-21T19:41:51.878Z,99653.81
2023-02-21T19:44:18.506Z,99662.66
2023-02-21T19:46:48.016Z,99662.09
2023-02-21T19:49:26.865Z,99656.16
2023-02-21T19:51:57.379Z,99666.72
2023-02-21T19:54:31.862Z,99659.72
2023-02-21T19:57:01.812Z,99663.38
2023-02-21T19:59:35.971Z,99662.56
2023-02-21T20:02:03.715Z,99666.31
2023-02-21T20:04:37.843Z,99662.81
2023-02-21T20:07:06.971Z,99662.06
2023-02-21T20:09:40.084Z,99664.88
2023-02-21T20:12:13.829Z,99663.22
2023-02-21T20:14:45.956Z,99667.03
2023-02-21T20:17:20.861Z,99665.31
2023-02-21T20:19:53.867Z,99670.75
2023-02-21T20:22:26.993Z,99669.00
2023-02-21T20:24:53.404Z,99674.41
2023-02-21T20:27:29.143Z,99683.34
2023-02-21T20:30:02.831Z,99680.00
2023-02-21T20:32:38.910Z,99682.00
2023-02-21T20:35:17.157Z,99677.66
2023-02-21T20:37:49.830Z,99683.88
2023-02-21T20:40:24.859Z,99690.16
